sensor_id;sensor_type;location;lat;lon;timestamp;P1;durP1;ratioP1;P2;durP2;ratioP2
27576;SDS011;15011;53.380;10.034;2023-12-20T00:03:39;6.47;;;1.40;;
27576;SDS011;15011;53.380;10.034;2023-12-20T00:08:39;8.07;;;1.93;;
27576;SDS011;15011;53.380;10.034;2023-12-20T00:13:40;5.20;;;1.50;;
27576;SDS011;15011;53.380;10.034;2023-12-20T00:18:40;7.33;;;1.27;;
27576;SDS011;15011;53.380;10.034;2023-12-20T00:23:41;7.27;;;1.17;;
27576;SDS011;15011;53.380;10.034;2023-12-20T00:28:41;8.20;;;1.27;;
27576;SDS011;15011;53.380;10.034;2023-12-20T00:33:42;7.93;;;1.20;;
27576;SDS011;15011;53.380;10.034;2023-12-20T00:38:43;6.13;;;1.02;;
27576;SDS011;15011;53.380;10.034;2023-12-20T00:43:44;6.57;;;1.00;;
27576;SDS011;15011;53.380;10.034;2023-12-20T00:48:44;6.50;;;1.40;;
27576;SDS011;15011;53.380;10.034;2023-12-20T00:53:45;2.88;;;0.77;;
27576;SDS011;15011;53.380;10.034;2023-12-20T00:58:49;6.05;;;1.25;;
27576;SDS011;15011;53.380;10.034;2023-12-20T01:03:49;8.60;;;1.37;;
27576;SDS011;15011;53.380;10.034;2023-12-20T01:08:51;6.95;;;1.15;;
27576;SDS011;15011;53.380;10.034;2023-12-20T01:13:51;8.05;;;1.20;;
27576;SDS011;15011;53.380;10.034;2023-12-20T01:18:52;5.40;;;1.37;;
27576;SDS011;15011;53.380;10.034;2023-12-20T01:23:52;5.50;;;0.90;;
27576;SDS011;15011;53.380;10.034;2023-12-20T01:28:53;9.60;;;1.10;;
27576;SDS011;15011;53.380;10.034;2023-12-20T01:33:53;6.93;;;0.80;;
27576;SDS011;15011;53.380;10.034;2023-12-20T01:38:54;10.47;;;2.33;;
27576;SDS011;15011;53.380;10.034;2023-12-20T01:43:55;3.87;;;1.00;;
27576;SDS011;15011;53.380;10.034;2023-12-20T01:48:56;3.22;;;1.00;;
27576;SDS011;15011;53.380;10.034;2023-12-20T01:53:56;5.97;;;1.10;;
27576;SDS011;15011;53.380;10.034;2023-12-20T01:58:57;7.05;;;1.35;;
27576;SDS011;15011;53.380;10.034;2023-12-20T02:03:58;8.60;;;1.58;;
27576;SDS011;15011;53.380;10.034;2023-12-20T02:08:59;5.78;;;1.10;;
27576;SDS011;15011;53.380;10.034;2023-12-20T02:14:00;6.10;;;1.20;;
27576;SDS011;15011;53.380;10.034;2023-12-20T02:19:00;5.87;;;1.40;;
27576;SDS011;15011;53.380;10.034;2023-12-20T02:24:01;5.03;;;1.57;;
27576;SDS011;15011;53.380;10.034;2023-12-20T02:29:01;8.17;;;1.20;;
27576;SDS011;15011;53.380;10.034;2023-12-20T02:34:02;7.78;;;1.90;;
27576;SDS011;15011;53.380;10.034;2023-12-20T02:39:02;7.13;;;1.73;;
27576;SDS011;15011;53.380;10.034;2023-12-20T02:44:04;5.75;;;1.40;;
27576;SDS011;15011;53.380;10.034;2023-12-20T02:49:05;8.30;;;2.00;;
27576;SDS011;15011;53.380;10.034;2023-12-20T02:54:06;9.07;;;1.30;;
27576;SDS011;15011;53.380;10.034;2023-12-20T02:59:06;9.43;;;1.83;;
27576;SDS011;15011;53.380;10.034;2023-12-20T03:04:08;12.40;;;2.67;;
27576;SDS011;15011;53.380;10.034;2023-12-20T03:09:09;7.50;;;2.40;;
27576;SDS011;15011;53.380;10.034;2023-12-20T03:14:09;6.20;;;1.70;;
27576;SDS011;15011;53.380;10.034;2023-12-20T03:19:09;11.77;;;1.70;;
27576;SDS011;15011;53.380;10.034;2023-12-20T03:24:10;7.53;;;2.03;;
27576;SDS011;15011;53.380;10.034;2023-12-20T03:29:10;8.45;;;1.58;;
27576;SDS011;15011;53.380;10.034;2023-12-20T03:34:11;5.90;;;1.37;;
27576;SDS011;15011;53.380;10.034;2023-12-20T03:39:11;6.25;;;1.33;;
27576;SDS011;15011;53.380;10.034;2023-12-20T03:44:12;10.27;;;2.20;;
27576;SDS011;15011;53.380;10.034;2023-12-20T03:49:12;5.97;;;1.33;;
27576;SDS011;15011;53.380;10.034;2023-12-20T03:54:13;4.83;;;1.10;;
27576;SDS011;15011;53.380;10.034;2023-12-20T03:59:13;3.27;;;1.10;;
27576;SDS011;15011;53.380;10.034;2023-12-20T04:04:14;5.50;;;1.45;;
27576;SDS011;15011;53.380;10.034;2023-12-20T04:09:14;9.43;;;1.83;;
27576;SDS011;15011;53.380;10.034;2023-12-20T04:14:15;6.17;;;1.83;;
27576;SDS011;15011;53.380;10.034;2023-12-20T04:19:16;6.07;;;1.70;;
27576;SDS011;15011;53.380;10.034;2023-12-20T04:24:16;8.57;;;2.65;;
27576;SDS011;15011;53.380;10.034;2023-12-20T04:29:17;6.30;;;1.93;;
27576;SDS011;15011;53.380;10.034;2023-12-20T04:34:17;8.10;;;2.10;;
27576;SDS011;15011;53.380;10.034;2023-12-20T04:39:18;9.32;;;2.20;;
27576;SDS011;15011;53.380;10.034;2023-12-20T04:44:18;4.60;;;1.65;;
27576;SDS011;15011;53.380;10.034;2023-12-20T04:49:19;8.63;;;2.53;;
27576;SDS011;15011;53.380;10.034;2023-12-20T04:54:19;10.83;;;2.80;;
27576;SDS011;15011;53.380;10.034;2023-12-20T04:59:20;4.43;;;2.07;;
27576;SDS011;15011;53.380;10.034;2023-12-20T05:04:20;7.43;;;2.90;;
27576;SDS011;15011;53.380;10.034;2023-12-20T05:09:21;5.53;;;2.63;;
27576;SDS011;15011;53.380;10.034;2023-12-20T05:14:21;9.43;;;3.92;;
27576;SDS011;15011;53.380;10.034;2023-12-20T05:19:22;7.53;;;3.23;;
27576;SDS011;15011;53.380;10.034;2023-12-20T05:24:23;9.80;;;3.78;;
27576;SDS011;15011;53.380;10.034;2023-12-20T05:29:23;9.70;;;3.23;;
27576;SDS011;15011;53.380;10.034;2023-12-20T05:34:24;6.33;;;3.37;;
27576;SDS011;15011;53.380;10.034;2023-12-20T05:39:24;11.53;;;3.67;;
27576;SDS011;15011;53.380;10.034;2023-12-20T05:44:26;8.38;;;2.28;;
27576;SDS011;15011;53.380;10.034;2023-12-20T05:49:26;11.13;;;3.83;;
27576;SDS011;15011;53.380;10.034;2023-12-20T05:54:27;9.05;;;3.25;;
27576;SDS011;15011;53.380;10.034;2023-12-20T05:59:27;10.03;;;3.10;;
27576;SDS011;15011;53.380;10.034;2023-12-20T06:04:27;9.10;;;3.27;;
27576;SDS011;15011;53.380;10.034;2023-12-20T06:09:28;9.67;;;3.40;;
27576;SDS011;15011;53.380;10.034;2023-12-20T06:14:28;9.43;;;3.90;;
27576;SDS011;15011;53.380;10.034;2023-12-20T06:19:30;8.82;;;4.35;;
27576;SDS011;15011;53.380;10.034;2023-12-20T06:24:31;9.33;;;3.03;;
27576;SDS011;15011;53.380;10.034;2023-12-20T06:29:33;12.25;;;3.60;;
27576;SDS011;15011;53.380;10.034;2023-12-20T06:34:35;6.80;;;3.25;;
27576;SDS011;15011;53.380;10.034;2023-12-20T06:39:35;8.38;;;2.15;;
27576;SDS011;15011;53.380;10.034;2023-12-20T06:44:36;13.40;;;3.43;;
27576;SDS011;15011;53.380;10.034;2023-12-20T06:49:37;9.75;;;2.70;;
27576;SDS011;15011;53.380;10.034;2023-12-20T06:54:37;7.20;;;2.30;;
27576;SDS011;15011;53.380;10.034;2023-12-20T06:59:38;12.00;;;3.88;;
27576;SDS011;15011;53.380;10.034;2023-12-20T07:04:41;9.25;;;3.75;;
27576;SDS011;15011;53.380;10.034;2023-12-20T07:09:42;7.88;;;3.22;;
27576;SDS011;15011;53.380;10.034;2023-12-20T07:14:43;9.68;;;3.25;;
27576;SDS011;15011;53.380;10.034;2023-12-20T07:19:43;11.60;;;4.00;;
27576;SDS011;15011;53.380;10.034;2023-12-20T07:24:44;6.83;;;2.37;;
27576;SDS011;15011;53.380;10.034;2023-12-20T07:29:44;8.53;;;3.00;;
27576;SDS011;15011;53.380;10.034;2023-12-20T07:34:44;9.23;;;2.90;;
27576;SDS011;15011;53.380;10.034;2023-12-20T07:39:45;12.85;;;3.38;;
27576;SDS011;15011;53.380;10.034;2023-12-20T07:44:46;14.48;;;3.55;;
27576;SDS011;15011;53.380;10.034;2023-12-20T07:49:46;12.67;;;2.97;;
27576;SDS011;15011;53.380;10.034;2023-12-20T07:54:46;9.88;;;3.28;;
27576;SDS011;15011;53.380;10.034;2023-12-20T07:59:47;10.20;;;2.53;;
27576;SDS011;15011;53.380;10.034;2023-12-20T08:04:47;10.97;;;2.80;;
27576;SDS011;15011;53.380;10.034;2023-12-20T08:09:48;9.63;;;3.00;;
27576;SDS011;15011;53.380;10.034;2023-12-20T08:14:48;8.60;;;2.87;;
27576;SDS011;15011;53.380;10.034;2023-12-20T08:19:48;10.50;;;3.63;;
27576;SDS011;15011;53.380;10.034;2023-12-20T08:24:49;8.93;;;2.80;;
27576;SDS011;15011;53.380;10.034;2023-12-20T08:29:49;7.05;;;2.38;;
27576;SDS011;15011;53.380;10.034;2023-12-20T08:34:51;12.63;;;3.65;;
27576;SDS011;15011;53.380;10.034;2023-12-20T08:39:51;7.80;;;3.03;;
27576;SDS011;15011;53.380;10.034;2023-12-20T08:44:52;7.57;;;2.38;;
27576;SDS011;15011;53.380;10.034;2023-12-20T08:49:52;8.73;;;3.10;;
27576;SDS011;15011;53.380;10.034;2023-12-20T08:54:58;14.90;;;3.60;;
27576;SDS011;15011;53.380;10.034;2023-12-20T08:59:58;13.65;;;2.70;;
27576;SDS011;15011;53.380;10.034;2023-12-20T09:04:59;8.55;;;3.00;;
27576;SDS011;15011;53.380;10.034;2023-12-20T09:09:59;5.53;;;2.30;;
27576;SDS011;15011;53.380;10.034;2023-12-20T09:15:00;4.60;;;1.50;;
27576;SDS011;15011;53.380;10.034;2023-12-20T09:20:04;4.60;;;1.80;;
27576;SDS011;15011;53.380;10.034;2023-12-20T09:25:07;9.00;;;2.45;;
27576;SDS011;15011;53.380;10.034;2023-12-20T09:30:08;8.57;;;2.60;;
27576;SDS011;15011;53.380;10.034;2023-12-20T09:35:09;5.85;;;2.10;;
27576;SDS011;15011;53.380;10.034;2023-12-20T09:40:09;7.60;;;2.80;;
27576;SDS011;15011;53.380;10.034;2023-12-20T09:45:11;4.63;;;0.85;;
27576;SDS011;15011;53.380;10.034;2023-12-20T09:50:14;4.93;;;0.80;;
27576;SDS011;15011;53.380;10.034;2023-12-20T09:55:15;2.53;;;0.70;;
27576;SDS011;15011;53.380;10.034;2023-12-20T10:00:17;1.95;;;0.40;;
27576;SDS011;15011;53.380;10.034;2023-12-20T10:05:18;2.13;;;0.65;;
27576;SDS011;15011;53.380;10.034;2023-12-20T10:10:21;0.88;;;0.43;;
27576;SDS011;15011;53.380;10.034;2023-12-20T10:15:22;1.48;;;0.90;;
27576;SDS011;15011;53.380;10.034;2023-12-20T10:20:22;1.43;;;0.60;;
27576;SDS011;15011;53.380;10.034;2023-12-20T10:25:23;1.20;;;0.37;;
27576;SDS011;15011;53.380;10.034;2023-12-20T10:30:24;1.85;;;0.52;;
27576;SDS011;15011;53.380;10.034;2023-12-20T10:35:25;0.90;;;0.40;;
27576;SDS011;15011;53.380;10.034;2023-12-20T10:40:26;1.60;;;0.40;;
27576;SDS011;15011;53.380;10.034;2023-12-20T10:45:28;1.88;;;0.40;;
27576;SDS011;15011;53.380;10.034;2023-12-20T10:50:28;2.85;;;0.75;;
27576;SDS011;15011;53.380;10.034;2023-12-20T10:55:30;1.58;;;0.65;;
27576;SDS011;15011;53.380;10.034;2023-12-20T11:00:30;3.17;;;0.47;;
27576;SDS011;15011;53.380;10.034;2023-12-20T11:11:11;2.83;;;0.60;;
27576;SDS011;15011;53.380;10.034;2023-12-20T11:16:15;3.58;;;0.60;;
27576;SDS011;15011;53.380;10.034;2023-12-20T11:21:15;0.88;;;0.35;;
27576;SDS011;15011;53.380;10.034;2023-12-20T11:26:16;3.97;;;0.33;;
27576;SDS011;15011;53.380;10.034;2023-12-20T11:31:17;3.72;;;0.80;;
27576;SDS011;15011;53.380;10.034;2023-12-20T11:36:21;3.20;;;0.50;;
27576;SDS011;15011;53.380;10.034;2023-12-20T11:41:25;2.35;;;0.70;;
27576;SDS011;15011;53.380;10.034;2023-12-20T11:46:26;3.22;;;0.63;;
27576;SDS011;15011;53.380;10.034;2023-12-20T11:51:27;3.70;;;0.80;;
27576;SDS011;15011;53.380;10.034;2023-12-20T11:56:27;4.53;;;1.03;;
27576;SDS011;15011;53.380;10.034;2023-12-20T12:01:28;4.78;;;0.90;;
27576;SDS011;15011;53.380;10.034;2023-12-20T12:06:28;3.70;;;1.17;;
27576;SDS011;15011;53.380;10.034;2023-12-20T12:11:29;5.93;;;1.30;;
27576;SDS011;15011;53.380;10.034;2023-12-20T12:16:29;4.90;;;1.10;;
27576;SDS011;15011;53.380;10.034;2023-12-20T12:21:30;5.72;;;0.70;;
27576;SDS011;15011;53.380;10.034;2023-12-20T12:26:30;3.97;;;0.70;;
27576;SDS011;15011;53.380;10.034;2023-12-20T12:31:31;2.20;;;1.10;;
27576;SDS011;15011;53.380;10.034;2023-12-20T12:36:31;3.83;;;1.27;;
27576;SDS011;15011;53.380;10.034;2023-12-20T12:41:32;1.20;;;0.50;;
27576;SDS011;15011;53.380;10.034;2023-12-20T12:46:32;3.85;;;1.05;;
27576;SDS011;15011;53.380;10.034;2023-12-20T12:51:33;2.97;;;1.13;;
27576;SDS011;15011;53.380;10.034;2023-12-20T12:56:34;3.00;;;0.50;;
27576;SDS011;15011;53.380;10.034;2023-12-20T13:01:34;4.40;;;0.80;;
27576;SDS011;15011;53.380;10.034;2023-12-20T13:06:34;2.60;;;0.80;;
27576;SDS011;15011;53.380;10.034;2023-12-20T13:11:35;5.57;;;1.40;;
27576;SDS011;15011;53.380;10.034;2023-12-20T13:16:35;4.70;;;0.90;;
27576;SDS011;15011;53.380;10.034;2023-12-20T13:21:36;3.33;;;0.77;;
27576;SDS011;15011;53.380;10.034;2023-12-20T13:26:37;5.20;;;0.90;;
27576;SDS011;15011;53.380;10.034;2023-12-20T13:31:37;5.57;;;0.93;;
27576;SDS011;15011;53.380;10.034;2023-12-20T13:36:38;3.47;;;1.10;;
27576;SDS011;15011;53.380;10.034;2023-12-20T13:41:39;5.53;;;1.33;;
27576;SDS011;15011;53.380;10.034;2023-12-20T13:46:40;6.82;;;1.42;;
27576;SDS011;15011;53.380;10.034;2023-12-20T13:51:41;5.53;;;1.73;;
27576;SDS011;15011;53.380;10.034;2023-12-20T13:56:41;8.70;;;1.37;;
27576;SDS011;15011;53.380;10.034;2023-12-20T14:01:43;6.63;;;1.42;;
27576;SDS011;15011;53.380;10.034;2023-12-20T14:06:44;8.47;;;1.83;;
27576;SDS011;15011;53.380;10.034;2023-12-20T14:11:44;7.43;;;1.90;;
27576;SDS011;15011;53.380;10.034;2023-12-20T14:16:46;5.13;;;1.35;;
27576;SDS011;15011;53.380;10.034;2023-12-20T14:21:46;11.13;;;2.10;;
27576;SDS011;15011;53.380;10.034;2023-12-20T14:26:47;9.83;;;1.97;;
27576;SDS011;15011;53.380;10.034;2023-12-20T14:31:47;12.07;;;2.60;;
27576;SDS011;15011;53.380;10.034;2023-12-20T14:36:49;12.43;;;2.85;;
27576;SDS011;15011;53.380;10.034;2023-12-20T14:41:50;10.57;;;2.17;;
27576;SDS011;15011;53.380;10.034;2023-12-20T14:46:50;12.10;;;2.13;;
27576;SDS011;15011;53.380;10.034;2023-12-20T14:51:51;7.82;;;1.65;;
27576;SDS011;15011;53.380;10.034;2023-12-20T14:56:51;6.63;;;1.90;;
27576;SDS011;15011;53.380;10.034;2023-12-20T15:01:52;6.83;;;1.60;;
27576;SDS011;15011;53.380;10.034;2023-12-20T15:06:52;9.25;;;2.47;;
27576;SDS011;15011;53.380;10.034;2023-12-20T15:11:53;8.70;;;1.90;;
27576;SDS011;15011;53.380;10.034;2023-12-20T15:16:53;10.87;;;1.90;;
27576;SDS011;15011;53.380;10.034;2023-12-20T15:21:55;9.25;;;2.15;;
27576;SDS011;15011;53.380;10.034;2023-12-20T15:26:55;15.88;;;1.92;;
27576;SDS011;15011;53.380;10.034;2023-12-20T15:31:56;7.32;;;1.35;;
27576;SDS011;15011;53.380;10.034;2023-12-20T15:36:56;10.75;;;1.88;;
27576;SDS011;15011;53.380;10.034;2023-12-20T15:41:57;5.80;;;1.42;;
27576;SDS011;15011;53.380;10.034;2023-12-20T15:46:58;7.03;;;1.60;;
27576;SDS011;15011;53.380;10.034;2023-12-20T15:51:59;7.53;;;1.60;;
27576;SDS011;15011;53.380;10.034;2023-12-20T15:56:59;7.93;;;1.40;;
27576;SDS011;15011;53.380;10.034;2023-12-20T16:02:00;5.17;;;1.17;;
27576;SDS011;15011;53.380;10.034;2023-12-20T16:07:00;6.32;;;1.77;;
27576;SDS011;15011;53.380;10.034;2023-12-20T16:12:01;6.40;;;1.30;;
27576;SDS011;15011;53.380;10.034;2023-12-20T16:17:01;6.20;;;1.73;;
27576;SDS011;15011;53.380;10.034;2023-12-20T16:22:02;4.50;;;1.93;;
27576;SDS011;15011;53.380;10.034;2023-12-20T16:27:02;5.73;;;0.80;;
27576;SDS011;15011;53.380;10.034;2023-12-20T16:32:03;4.65;;;1.00;;
27576;SDS011;15011;53.380;10.034;2023-12-20T16:37:04;5.30;;;1.10;;
27576;SDS011;15011;53.380;10.034;2023-12-20T16:42:05;7.82;;;1.95;;
27576;SDS011;15011;53.380;10.034;2023-12-20T16:47:05;5.22;;;1.88;;
27576;SDS011;15011;53.380;10.034;2023-12-20T16:52:06;6.20;;;1.77;;
27576;SDS011;15011;53.380;10.034;2023-12-20T16:57:06;5.40;;;1.57;;
27576;SDS011;15011;53.380;10.034;2023-12-20T17:02:07;5.28;;;1.25;;
27576;SDS011;15011;53.380;10.034;2023-12-20T17:07:07;9.83;;;1.37;;
27576;SDS011;15011;53.380;10.034;2023-12-20T17:12:08;7.83;;;1.53;;
27576;SDS011;15011;53.380;10.034;2023-12-20T17:17:09;6.80;;;1.70;;
27576;SDS011;15011;53.380;10.034;2023-12-20T17:22:10;5.43;;;2.13;;
27576;SDS011;15011;53.380;10.034;2023-12-20T17:27:10;6.90;;;2.10;;
27576;SDS011;15011;53.380;10.034;2023-12-20T17:32:11;6.97;;;1.83;;
27576;SDS011;15011;53.380;10.034;2023-12-20T17:37:12;8.87;;;1.27;;
27576;SDS011;15011;53.380;10.034;2023-12-20T17:42:12;3.50;;;1.20;;
27576;SDS011;15011;53.380;10.034;2023-12-20T17:47:13;5.88;;;1.27;;
27576;SDS011;15011;53.380;10.034;2023-12-20T17:52:13;5.37;;;1.50;;
27576;SDS011;15011;53.380;10.034;2023-12-20T17:57:14;5.60;;;1.87;;
27576;SDS011;15011;53.380;10.034;2023-12-20T18:02:14;4.93;;;2.27;;
27576;SDS011;15011;53.380;10.034;2023-12-20T18:07:15;4.40;;;1.60;;
27576;SDS011;15011;53.380;10.034;2023-12-20T18:12:15;7.67;;;2.00;;
27576;SDS011;15011;53.380;10.034;2023-12-20T18:17:15;5.77;;;2.20;;
27576;SDS011;15011;53.380;10.034;2023-12-20T18:22:16;3.57;;;1.80;;
27576;SDS011;15011;53.380;10.034;2023-12-20T18:27:16;3.40;;;1.10;;
27576;SDS011;15011;53.380;10.034;2023-12-20T18:32:17;7.05;;;1.63;;
27576;SDS011;15011;53.380;10.034;2023-12-20T18:37:17;7.28;;;1.65;;
27576;SDS011;15011;53.380;10.034;2023-12-20T18:42:18;3.43;;;1.63;;
27576;SDS011;15011;53.380;10.034;2023-12-20T18:47:18;2.57;;;1.07;;
27576;SDS011;15011;53.380;10.034;2023-12-20T18:52:19;4.60;;;1.50;;
27576;SDS011;15011;53.380;10.034;2023-12-20T18:57:20;6.57;;;1.63;;
27576;SDS011;15011;53.380;10.034;2023-12-20T19:02:20;5.65;;;1.90;;
27576;SDS011;15011;53.380;10.034;2023-12-20T19:07:21;2.43;;;1.00;;
27576;SDS011;15011;53.380;10.034;2023-12-20T19:12:21;5.63;;;1.43;;
27576;SDS011;15011;53.380;10.034;2023-12-20T19:17:22;4.30;;;1.03;;
27576;SDS011;15011;53.380;10.034;2023-12-20T19:22:22;3.90;;;0.95;;
27576;SDS011;15011;53.380;10.034;2023-12-20T19:27:23;1.83;;;0.75;;
27576;SDS011;15011;53.380;10.034;2023-12-20T19:32:24;2.30;;;0.67;;
27576;SDS011;15011;53.380;10.034;2023-12-20T19:37:24;2.43;;;0.97;;
27576;SDS011;15011;53.380;10.034;2023-12-20T19:42:25;2.83;;;1.38;;
27576;SDS011;15011;53.380;10.034;2023-12-20T19:47:25;3.70;;;1.00;;
27576;SDS011;15011;53.380;10.034;2023-12-20T19:52:26;7.40;;;0.82;;
27576;SDS011;15011;53.380;10.034;2023-12-20T19:57:28;2.22;;;1.00;;
27576;SDS011;15011;53.380;10.034;2023-12-20T20:02:29;4.57;;;2.93;;
27576;SDS011;15011;53.380;10.034;2023-12-20T20:07:30;3.00;;;1.15;;
27576;SDS011;15011;53.380;10.034;2023-12-20T20:12:30;5.30;;;1.80;;
27576;SDS011;15011;53.380;10.034;2023-12-20T20:17:33;4.00;;;1.35;;
27576;SDS011;15011;53.380;10.034;2023-12-20T20:22:33;5.78;;;1.60;;
27576;SDS011;15011;53.380;10.034;2023-12-20T20:27:35;3.63;;;1.77;;
27576;SDS011;15011;53.380;10.034;2023-12-20T20:32:35;8.88;;;2.30;;
27576;SDS011;15011;53.380;10.034;2023-12-20T20:37:36;8.43;;;1.70;;
27576;SDS011;15011;53.380;10.034;2023-12-20T20:42:36;2.92;;;1.67;;
27576;SDS011;15011;53.380;10.034;2023-12-20T20:47:37;5.63;;;1.50;;
27576;SDS011;15011;53.380;10.034;2023-12-20T20:52:38;6.78;;;1.83;;
27576;SDS011;15011;53.380;10.034;2023-12-20T20:57:39;7.87;;;2.57;;
27576;SDS011;15011;53.380;10.034;2023-12-20T21:02:39;3.10;;;1.35;;
27576;SDS011;15011;53.380;10.034;2023-12-20T21:07:40;5.53;;;1.73;;
27576;SDS011;15011;53.380;10.034;2023-12-20T21:12:44;4.47;;;1.90;;
27576;SDS011;15011;53.380;10.034;2023-12-20T21:17:44;7.27;;;2.53;;
27576;SDS011;15011;53.380;10.034;2023-12-20T21:22:45;7.40;;;2.23;;
27576;SDS011;15011;53.380;10.034;2023-12-20T21:27:45;4.60;;;2.10;;
27576;SDS011;15011;53.380;10.034;2023-12-20T21:32:46;3.83;;;1.40;;
27576;SDS011;15011;53.380;10.034;2023-12-20T21:37:47;5.93;;;2.20;;
27576;SDS011;15011;53.380;10.034;2023-12-20T21:42:47;4.63;;;2.00;;
27576;SDS011;15011;53.380;10.034;2023-12-20T21:47:48;1.60;;;1.23;;
27576;SDS011;15011;53.380;10.034;2023-12-20T21:52:48;1.90;;;1.70;;
27576;SDS011;15011;53.380;10.034;2023-12-20T21:57:49;4.63;;;2.77;;
27576;SDS011;15011;53.380;10.034;2023-12-20T22:02:49;5.23;;;2.70;;
27576;SDS011;15011;53.380;10.034;2023-12-20T22:07:50;4.10;;;2.43;;
27576;SDS011;15011;53.380;10.034;2023-12-20T22:12:51;4.20;;;2.10;;
27576;SDS011;15011;53.380;10.034;2023-12-20T22:17:52;3.20;;;1.47;;
27576;SDS011;15011;53.380;10.034;2023-12-20T22:22:52;2.80;;;1.90;;
27576;SDS011;15011;53.380;10.034;2023-12-20T22:27:52;2.67;;;1.58;;
27576;SDS011;15011;53.380;10.034;2023-12-20T22:32:53;3.57;;;2.00;;
27576;SDS011;15011;53.380;10.034;2023-12-20T22:37:53;4.40;;;2.07;;
27576;SDS011;15011;53.380;10.034;2023-12-20T22:42:54;2.90;;;1.92;;
27576;SDS011;15011;53.380;10.034;2023-12-20T22:47:55;4.47;;;2.40;;
27576;SDS011;15011;53.380;10.034;2023-12-20T22:52:55;3.83;;;1.90;;
27576;SDS011;15011;53.380;10.034;2023-12-20T22:57:56;3.53;;;1.87;;
27576;SDS011;15011;53.380;10.034;2023-12-20T23:02:56;3.73;;;1.90;;
27576;SDS011;15011;53.380;10.034;2023-12-20T23:07:56;2.27;;;2.07;;
27576;SDS011;15011;53.380;10.034;2023-12-20T23:12:57;2.40;;;1.70;;
27576;SDS011;15011;53.380;10.034;2023-12-20T23:17:57;3.08;;;2.20;;
27576;SDS011;15011;53.380;10.034;2023-12-20T23:22:59;1.63;;;1.10;;
27576;SDS011;15011;53.380;10.034;2023-12-20T23:27:59;1.57;;;1.33;;
27576;SDS011;15011;53.380;10.034;2023-12-20T23:33:00;1.73;;;1.02;;
27576;SDS011;15011;53.380;10.034;2023-12-20T23:38:00;1.00;;;0.80;;
27576;SDS011;15011;53.380;10.034;2023-12-20T23:43:02;0.73;;;0.60;;
27576;SDS011;15011;53.380;10.034;2023-12-20T23:48:02;0.90;;;0.60;;
27576;SDS011;15011;53.380;10.034;2023-12-20T23:53:03;0.30;;;0.30;;
27576;SDS011;15011;53.380;10.034;2023-12-20T23:58:04;0.28;;;0.28;;
